createdAt,value
2017-08-31T00:01:58.131Z,32.97
2017-08-31T00:04:59.484Z,32.20
2017-08-31T00:08:01.057Z,30.63
2017-08-31T00:11:02.397Z,30.03
2017-08-31T00:14:03.745Z,31.30
2017-08-31T00:17:05.065Z,32.50
2017-08-31T00:20:06.425Z,36.23
2017-08-31T00:23:07.729Z,34.07
2017-08-31T00:26:09.076Z,33.67
2017-08-31T00:29:10.447Z,30.27
2017-08-31T00:32:12.618Z,35.53
2017-08-31T00:35:14.087Z,33.20
2017-08-31T00:38:15.469Z,28.43
2017-08-31T00:41:16.853Z,30.17
2017-08-31T00:44:18.226Z,26.33
2017-08-31T00:47:19.697Z,31.33
2017-08-31T00:50:21.057Z,31.30
2017-08-31T00:53:22.461Z,33.10
2017-08-31T00:56:23.899Z,29.57
2017-08-31T00:59:25.281Z,34.80
2017-08-31T01:02:26.658Z,31.47
2017-08-31T01:05:28.062Z,34.13
2017-08-31T01:08:29.441Z,34.77
2017-08-31T01:11:30.854Z,48.80
2017-08-31T01:14:32.176Z,44.70
2017-08-31T01:17:33.707Z,44.87
2017-08-31T01:20:35.072Z,44.23
2017-08-31T01:23:36.459Z,45.17
2017-08-31T01:26:37.800Z,44.83
2017-08-31T01:29:39.214Z,51.40
2017-08-31T01:32:40.573Z,49.83
2017-08-31T01:35:41.962Z,55.30
2017-08-31T01:38:43.687Z,48.93
2017-08-31T01:41:45.061Z,50.83
2017-08-31T01:44:46.481Z,51.27
2017-08-31T01:47:47.845Z,56.63
2017-08-31T01:50:49.215Z,55.97
2017-08-31T01:53:50.557Z,49.03
2017-08-31T01:56:51.955Z,43.30
2017-08-31T01:59:53.283Z,40.87
2017-08-31T02:02:54.661Z,41.43
2017-08-31T02:05:56.034Z,36.00
2017-08-31T02:08:57.357Z,33.37
2017-08-31T02:11:58.698Z,38.10
2017-08-31T02:15:00.013Z,32.33
2017-08-31T02:18:01.368Z,31.57
2017-08-31T02:21:02.698Z,37.20
2017-08-31T02:24:04.074Z,36.40
2017-08-31T02:27:05.823Z,38.00
2017-08-31T02:30:07.173Z,37.97
2017-08-31T02:33:08.573Z,36.83
2017-08-31T02:36:09.958Z,43.33
2017-08-31T02:39:11.338Z,48.80
2017-08-31T02:42:12.676Z,59.53
2017-08-31T02:45:14.033Z,54.20
2017-08-31T02:48:15.382Z,53.23
2017-08-31T02:51:16.746Z,64.60
2017-08-31T02:54:18.083Z,59.20
2017-08-31T02:57:19.439Z,77.83
2017-08-31T03:00:20.805Z,70.50
2017-08-31T03:03:22.150Z,75.07
2017-08-31T03:06:23.509Z,71.60
2017-08-31T03:09:24.798Z,68.60
2017-08-31T03:12:26.176Z,56.57
2017-08-31T03:15:27.380Z,39.43
2017-08-31T03:18:28.757Z,21.17
2017-08-31T03:21:30.315Z,26.70
2017-08-31T03:24:31.638Z,29.40
2017-08-31T03:27:32.994Z,33.67
2017-08-31T03:30:34.341Z,37.80
2017-08-31T03:33:35.667Z,34.97
2017-08-31T03:36:36.961Z,35.23
2017-08-31T03:39:38.306Z,43.10
2017-08-31T03:42:39.637Z,44.73
2017-08-31T03:45:40.982Z,48.13
2017-08-31T03:48:42.335Z,48.00
2017-08-31T03:51:43.642Z,54.60
2017-08-31T03:54:45.411Z,52.10
2017-08-31T03:57:47.192Z,42.97
2017-08-31T04:00:48.551Z,47.07
2017-08-31T04:03:50.605Z,44.70
2017-08-31T04:06:51.992Z,59.43
2017-08-31T04:09:53.441Z,38.10
2017-08-31T04:12:54.759Z,33.67
2017-08-31T04:15:56.102Z,32.60
2017-08-31T04:18:57.423Z,41.23
2017-08-31T04:21:58.777Z,34.47
2017-08-31T04:25:00.113Z,43.67
2017-08-31T04:28:02.192Z,32.20
2017-08-31T04:31:03.558Z,28.23
2017-08-31T04:34:04.886Z,34.00
2017-08-31T04:37:06.209Z,30.10
2017-08-31T04:40:07.534Z,33.80
2017-08-31T04:43:08.902Z,34.47
2017-08-31T04:46:10.226Z,34.50
2017-08-31T04:49:11.582Z,34.30
2017-08-31T04:52:12.896Z,33.10
2017-08-31T04:55:14.261Z,44.30
2017-08-31T04:58:15.890Z,34.83
2017-08-31T05:01:17.258Z,40.53
2017-08-31T05:04:18.648Z,35.30
2017-08-31T05:07:20.055Z,33.10
2017-08-31T05:10:21.413Z,35.50
2017-08-31T05:13:22.733Z,34.73
2017-08-31T05:16:24.088Z,40.27
2017-08-31T05:19:25.563Z,50.13
2017-08-31T05:22:26.971Z,38.37
2017-08-31T05:25:28.374Z,36.73
2017-08-31T05:28:29.717Z,31.83
2017-08-31T05:31:31.092Z,27.87
2017-08-31T05:34:39.330Z,28.10
2017-08-31T05:37:40.698Z,23.33
2017-08-31T05:40:42.462Z,21.13
2017-08-31T05:43:43.829Z,26.50
2017-08-31T05:46:45.220Z,26.90
2017-08-31T05:49:46.560Z,19.80
2017-08-31T05:52:47.917Z,15.80
2017-08-31T05:55:49.279Z,13.87
2017-08-31T05:58:50.658Z,10.27
2017-08-31T06:01:52.049Z,17.60
2017-08-31T06:04:53.397Z,11.33
2017-08-31T06:07:54.774Z,13.90
2017-08-31T06:10:56.131Z,12.57
2017-08-31T06:13:57.491Z,12.20
2017-08-31T06:16:58.822Z,12.60
2017-08-31T06:20:00.163Z,13.37
2017-08-31T06:23:01.884Z,13.50
2017-08-31T06:26:03.191Z,14.00
2017-08-31T06:29:04.538Z,22.37
2017-08-31T06:32:05.852Z,17.27
2017-08-31T06:35:07.239Z,17.97
2017-08-31T06:38:08.581Z,22.43
2017-08-31T06:41:09.966Z,15.53
2017-08-31T06:44:11.333Z,15.77
2017-08-31T06:47:12.653Z,14.23
2017-08-31T06:50:14.023Z,18.30
2017-08-31T06:53:15.315Z,14.97
2017-08-31T06:56:16.668Z,15.40
2017-08-31T06:59:17.999Z,12.10
2017-08-31T07:02:19.381Z,15.90
2017-08-31T07:05:21.190Z,10.10
2017-08-31T07:08:22.489Z,6.67
2017-08-31T07:11:23.802Z,7.27
2017-08-31T07:14:25.118Z,5.80
2017-08-31T07:17:26.467Z,4.43
2017-08-31T07:20:27.750Z,8.13
2017-08-31T07:23:29.097Z,4.77
2017-08-31T07:26:30.425Z,6.10
2017-08-31T07:29:31.793Z,9.10
2017-08-31T07:32:33.166Z,3.70
2017-08-31T07:35:34.469Z,4.53
2017-08-31T07:38:35.832Z,8.83
2017-08-31T07:41:37.166Z,4.60
2017-08-31T07:44:38.514Z,4.57
2017-08-31T07:47:39.829Z,4.80
2017-08-31T07:50:41.200Z,3.60
2017-08-31T07:53:42.532Z,3.10
2017-08-31T07:56:43.868Z,2.63
2017-08-31T07:59:45.171Z,3.17
2017-08-31T08:02:53.512Z,3.03
2017-08-31T08:05:54.883Z,8.87
2017-08-31T08:08:56.226Z,6.03
2017-08-31T08:11:57.535Z,3.07
2017-08-31T08:14:58.883Z,5.80
2017-08-31T08:18:00.206Z,6.40
2017-08-31T08:21:01.534Z,4.37
2017-08-31T08:24:02.886Z,3.97
2017-08-31T08:27:04.187Z,5.50
2017-08-31T08:30:05.545Z,5.27
2017-08-31T08:33:06.858Z,5.57
2017-08-31T08:36:08.204Z,6.50
2017-08-31T08:39:09.667Z,7.23
2017-08-31T08:42:10.970Z,5.97
2017-08-31T08:45:12.333Z,7.37
2017-08-31T08:48:13.649Z,6.40
2017-08-31T08:51:15.024Z,8.17
2017-08-31T08:54:16.344Z,9.60
2017-08-31T08:57:24.633Z,10.20
2017-08-31T09:00:26.122Z,5.73
2017-08-31T09:03:27.446Z,7.97
2017-08-31T09:06:28.842Z,5.77
2017-08-31T09:09:30.151Z,4.47
2017-08-31T09:12:31.538Z,3.90
2017-08-31T09:15:32.850Z,4.53
2017-08-31T09:18:34.210Z,8.07
2017-08-31T09:21:35.697Z,7.27
2017-08-31T09:24:37.015Z,5.13
2017-08-31T09:27:38.333Z,7.43
2017-08-31T09:30:39.677Z,6.50
2017-08-31T09:33:41.059Z,6.10
2017-08-31T09:36:42.369Z,6.80
2017-08-31T09:39:43.725Z,10.10
2017-08-31T09:42:45.174Z,9.30
2017-08-31T09:45:46.482Z,7.67
2017-08-31T09:48:47.840Z,7.03
2017-08-31T09:51:49.179Z,9.03
2017-08-31T09:54:50.561Z,10.40
2017-08-31T09:57:51.860Z,9.30
2017-08-31T10:00:53.225Z,12.60
2017-08-31T10:03:54.677Z,10.17
2017-08-31T10:06:56.015Z,16.10
2017-08-31T10:09:57.352Z,13.40
2017-08-31T10:12:58.674Z,10.00
2017-08-31T10:16:00.073Z,8.83
2017-08-31T10:19:01.367Z,9.70
2017-08-31T10:22:02.695Z,7.37
2017-08-31T10:25:04.201Z,7.07
2017-08-31T10:28:05.573Z,5.47
2017-08-31T10:31:06.941Z,4.50
2017-08-31T10:34:08.289Z,7.27
2017-08-31T10:37:09.645Z,6.50
2017-08-31T10:40:10.998Z,5.90
2017-08-31T10:43:12.397Z,5.47
2017-08-31T10:46:13.741Z,5.83
2017-08-31T10:49:15.086Z,3.90
2017-08-31T10:52:16.461Z,2.40
2017-08-31T10:55:17.810Z,9.60
2017-08-31T10:58:19.194Z,3.17
2017-08-31T11:01:20.550Z,2.83
2017-08-31T11:04:21.900Z,3.83
2017-08-31T11:07:23.664Z,5.57
2017-08-31T11:10:25.010Z,11.80
2017-08-31T11:13:26.432Z,5.47
2017-08-31T11:16:27.801Z,6.23
2017-08-31T11:19:29.163Z,7.00
2017-08-31T11:22:30.487Z,7.90
2017-08-31T11:25:31.873Z,5.90
2017-08-31T11:28:33.343Z,8.97
2017-08-31T11:31:34.637Z,9.27
2017-08-31T11:34:36.013Z,7.00
2017-08-31T11:37:37.254Z,4.43
2017-08-31T11:40:38.578Z,6.33
2017-08-31T11:43:39.880Z,9.93
2017-08-31T11:46:41.207Z,3.70
2017-08-31T11:49:42.522Z,4.43
2017-08-31T11:52:43.854Z,3.60
2017-08-31T11:55:45.185Z,3.70
2017-08-31T11:58:46.473Z,9.83
2017-08-31T12:01:47.829Z,6.13
2017-08-31T12:04:49.297Z,2.50
2017-08-31T12:07:50.638Z,2.00
2017-08-31T12:10:52.025Z,4.80
2017-08-31T12:13:53.359Z,2.60
2017-08-31T12:16:54.715Z,2.07
2017-08-31T12:19:56.035Z,3.77
2017-08-31T12:22:57.386Z,6.60
2017-08-31T12:25:58.725Z,5.70
2017-08-31T12:29:00.080Z,4.70
2017-08-31T12:32:01.362Z,4.33
2017-08-31T12:35:02.721Z,3.60
2017-08-31T12:38:04.267Z,5.77
2017-08-31T12:41:05.581Z,4.77
2017-08-31T12:44:06.914Z,7.87
2017-08-31T12:47:08.216Z,5.67
2017-08-31T12:50:09.544Z,6.27
2017-08-31T12:53:10.860Z,6.60
2017-08-31T12:56:12.219Z,4.77
2017-08-31T12:59:13.519Z,8.03
2017-08-31T13:02:14.855Z,8.10
2017-08-31T13:05:16.171Z,5.70
2017-08-31T13:08:17.545Z,57.33
2017-08-31T13:11:18.869Z,21.73
2017-08-31T13:14:20.173Z,14.80
2017-08-31T13:17:21.514Z,8.83
2017-08-31T13:20:22.820Z,10.57
2017-08-31T13:23:24.181Z,8.37
2017-08-31T13:26:25.507Z,9.50
2017-08-31T13:29:27.606Z,20.67
2017-08-31T13:32:29.278Z,8.23
2017-08-31T13:35:31.375Z,9.57
2017-08-31T13:38:32.709Z,9.30
2017-08-31T13:41:34.041Z,7.23
2017-08-31T13:44:35.393Z,9.77
2017-08-31T13:47:36.726Z,8.20
2017-08-31T13:50:38.055Z,18.67
2017-08-31T13:53:39.655Z,10.03
2017-08-31T13:56:40.985Z,5.53
2017-08-31T13:59:42.341Z,12.93
2017-08-31T14:02:43.685Z,9.27
2017-08-31T14:05:45.018Z,5.97
2017-08-31T14:08:46.362Z,8.83
2017-08-31T14:11:47.720Z,8.60
2017-08-31T14:14:49.052Z,7.67
2017-08-31T14:17:50.401Z,6.70
2017-08-31T14:20:51.770Z,5.50
2017-08-31T14:23:53.077Z,7.73
2017-08-31T14:26:54.683Z,19.97
2017-08-31T14:29:56.013Z,7.40
2017-08-31T14:32:57.381Z,6.87
2017-08-31T14:35:58.979Z,10.63
2017-08-31T14:39:00.286Z,10.40
2017-08-31T14:42:01.631Z,7.27
2017-08-31T14:45:03.014Z,21.10
2017-08-31T14:48:04.359Z,6.43
2017-08-31T14:51:05.649Z,2.97
2017-08-31T14:54:07.014Z,7.90
2017-08-31T14:57:08.353Z,2.67
2017-08-31T15:00:09.780Z,7.27
2017-08-31T15:03:12.670Z,5.27
2017-08-31T15:06:13.978Z,5.23
2017-08-31T15:09:15.345Z,10.47
2017-08-31T15:12:16.646Z,7.43
2017-08-31T15:15:18.030Z,6.43
2017-08-31T15:18:19.367Z,6.00
2017-08-31T15:21:20.696Z,5.03
2017-08-31T15:24:22.034Z,5.73
2017-08-31T15:27:23.393Z,6.20
2017-08-31T15:30:24.770Z,8.07
2017-08-31T15:33:26.317Z,8.70
2017-08-31T15:36:27.699Z,4.50
2017-08-31T15:39:29.191Z,8.23
2017-08-31T15:42:30.593Z,4.07
2017-08-31T15:45:32.177Z,7.90
2017-08-31T15:48:33.885Z,5.00
2017-08-31T15:51:36.214Z,3.73
2017-08-31T15:54:37.788Z,2.93
2017-08-31T15:57:39.929Z,4.17
2017-08-31T16:00:41.241Z,7.10
2017-08-31T16:03:42.683Z,9.53
2017-08-31T16:06:44.020Z,5.30
2017-08-31T16:09:45.810Z,6.67
2017-08-31T16:12:47.143Z,10.97
2017-08-31T16:15:48.486Z,10.53
2017-08-31T16:18:49.895Z,5.57
2017-08-31T16:21:51.234Z,9.50
2017-08-31T16:24:52.602Z,5.83
2017-08-31T16:27:53.947Z,4.90
2017-08-31T16:30:55.297Z,10.50
2017-08-31T16:33:56.618Z,10.00
2017-08-31T16:36:59.851Z,6.83
2017-08-31T16:40:01.183Z,10.70
2017-08-31T16:43:02.631Z,6.93
2017-08-31T16:46:04.195Z,9.00
2017-08-31T16:49:05.516Z,4.70
2017-08-31T16:52:07.047Z,6.77
2017-08-31T16:55:08.357Z,9.47
2017-08-31T16:58:09.729Z,4.67
2017-08-31T17:01:18.047Z,4.20
2017-08-31T17:04:19.410Z,4.53
2017-08-31T17:07:20.725Z,10.33
2017-08-31T17:10:22.477Z,11.47
2017-08-31T17:13:23.823Z,9.90
2017-08-31T17:16:25.150Z,4.97
2017-08-31T17:19:26.487Z,5.47
2017-08-31T17:22:27.839Z,8.60
2017-08-31T17:25:29.173Z,4.43
2017-08-31T17:28:30.480Z,5.90
2017-08-31T17:31:31.838Z,11.13
2017-08-31T17:34:33.185Z,10.10
2017-08-31T17:37:34.549Z,8.90
2017-08-31T17:40:36.326Z,5.90
2017-08-31T17:43:37.728Z,9.10
2017-08-31T17:46:39.214Z,7.27
2017-08-31T17:49:40.525Z,10.57
2017-08-31T17:52:41.866Z,20.63
2017-08-31T17:55:43.274Z,8.33
2017-08-31T17:58:44.685Z,4.10
2017-08-31T18:01:46.018Z,11.50
2017-08-31T18:04:47.370Z,12.17
2017-08-31T18:07:48.744Z,16.67
2017-08-31T18:10:50.152Z,4.40
2017-08-31T18:13:51.484Z,85.10
2017-08-31T18:16:52.769Z,4.13
2017-08-31T18:19:54.077Z,13.97
2017-08-31T18:22:55.526Z,5.93
2017-08-31T18:25:57.593Z,9.70
2017-08-31T18:28:58.961Z,5.43
2017-08-31T18:32:00.277Z,11.53
2017-08-31T18:35:01.799Z,5.37
2017-08-31T18:38:04.476Z,6.43
2017-08-31T18:41:06.388Z,5.63
2017-08-31T18:44:07.844Z,4.80
2017-08-31T18:47:09.566Z,8.00
2017-08-31T18:50:11.388Z,6.83
2017-08-31T18:53:13.217Z,4.53
2017-08-31T18:56:14.600Z,11.47
2017-08-31T18:59:15.901Z,5.77
2017-08-31T19:02:18.747Z,10.30
2017-08-31T19:05:21.021Z,14.93
2017-08-31T19:08:24.644Z,12.43
2017-08-31T19:11:26.419Z,9.53
2017-08-31T19:14:29.465Z,5.67
2017-08-31T19:17:30.766Z,9.33
2017-08-31T19:20:33.386Z,10.00
2017-08-31T19:23:36.673Z,5.20
2017-08-31T19:26:37.958Z,6.57
2017-08-31T19:29:39.352Z,8.87
2017-08-31T19:32:41.177Z,13.63
2017-08-31T19:35:43.474Z,10.90
2017-08-31T19:38:45.561Z,8.67
2017-08-31T19:41:48.030Z,8.57
2017-08-31T19:44:49.721Z,6.63
2017-08-31T19:47:51.861Z,7.60
2017-08-31T19:50:53.185Z,12.47
2017-08-31T19:53:54.994Z,8.27
2017-08-31T19:56:56.393Z,11.97
2017-08-31T19:59:57.693Z,16.80
2017-08-31T20:03:00.093Z,7.23
2017-08-31T20:06:01.449Z,10.47
2017-08-31T20:09:03.017Z,8.13
2017-08-31T20:12:05.630Z,7.57
2017-08-31T20:15:06.962Z,7.07
2017-08-31T20:18:08.289Z,6.63
2017-08-31T20:21:09.601Z,24.47
2017-08-31T20:24:11.019Z,13.13
2017-08-31T20:27:13.293Z,9.80
2017-08-31T20:30:14.640Z,8.47
2017-08-31T20:33:16.104Z,7.93
2017-08-31T20:36:17.437Z,11.13
2017-08-31T20:39:18.793Z,16.70
2017-08-31T20:42:20.120Z,11.50
2017-08-31T20:45:21.488Z,7.00
2017-08-31T20:48:22.832Z,6.10
2017-08-31T20:51:31.140Z,8.03
2017-08-31T20:54:32.477Z,5.90
2017-08-31T20:57:33.757Z,10.00
2017-08-31T21:00:35.525Z,10.70
2017-08-31T21:03:36.976Z,8.83
2017-08-31T21:06:38.306Z,22.40
2017-08-31T21:09:39.649Z,11.60
2017-08-31T21:12:40.950Z,5.43
2017-08-31T21:15:42.320Z,14.33
2017-08-31T21:18:50.496Z,16.57
2017-08-31T21:21:51.795Z,19.77
2017-08-31T21:24:53.142Z,9.87
2017-08-31T21:27:54.447Z,9.73
2017-08-31T21:30:55.773Z,6.70
2017-08-31T21:33:57.116Z,10.93
2017-08-31T21:36:58.473Z,6.47
2017-08-31T21:40:00.137Z,13.10
2017-08-31T21:43:01.457Z,7.60
2017-08-31T21:46:02.828Z,6.60
2017-08-31T21:49:04.137Z,16.97
2017-08-31T21:52:05.481Z,9.40
2017-08-31T21:55:06.790Z,7.63
2017-08-31T21:58:08.161Z,7.57
2017-08-31T22:01:09.477Z,9.83
2017-08-31T22:04:10.825Z,13.43
2017-08-31T22:07:12.163Z,6.53
2017-08-31T22:10:13.505Z,11.90
2017-08-31T22:13:14.805Z,13.47
2017-08-31T22:16:16.122Z,11.60
2017-08-31T22:19:17.425Z,9.10
2017-08-31T22:22:18.784Z,13.97
2017-08-31T22:25:20.113Z,17.60
2017-08-31T22:28:21.418Z,10.93
2017-08-31T22:31:22.743Z,9.20
2017-08-31T22:34:24.081Z,17.13
2017-08-31T22:37:25.433Z,14.03
2017-08-31T22:40:26.794Z,8.00
2017-08-31T22:43:28.176Z,8.40
2017-08-31T22:46:29.469Z,12.77
2017-08-31T22:49:30.828Z,6.20
2017-08-31T22:52:32.161Z,5.23
2017-08-31T22:55:34.865Z,9.63
2017-08-31T22:58:42.253Z,10.53
2017-08-31T23:01:43.565Z,9.57
2017-08-31T23:04:44.900Z,14.30
2017-08-31T23:07:46.182Z,4.03
2017-08-31T23:10:47.573Z,10.97
2017-08-31T23:13:55.890Z,5.37
2017-08-31T23:16:57.236Z,11.27
2017-08-31T23:19:58.680Z,13.23
2017-08-31T23:23:00.025Z,15.43
2017-08-31T23:26:01.414Z,21.00
2017-08-31T23:29:02.701Z,13.20
2017-08-31T23:32:04.052Z,10.70
2017-08-31T23:35:05.370Z,10.80
2017-08-31T23:38:06.713Z,12.93
2017-08-31T23:41:08.053Z,12.80
2017-08-31T23:44:09.408Z,13.03
2017-08-31T23:47:10.769Z,13.37
2017-08-31T23:50:12.041Z,13.93
2017-08-31T23:53:13.370Z,20.23
2017-08-31T23:56:14.708Z,13.20
2017-08-31T23:59:16.042Z,12.90
